Terminal Aerodrome Forecast
Issued by NWS

Current Version | Previous Version | Graphics & Text | Print | Product List | Glossary On
Versions: 1 2 3 4 5 6 7 8 9 10 11 12
000
FTUS41 KPBZ 171200 RRA
TAFHLG
TAF
KHLG 171221Z 1712/1812 12008KT P6SM BKN250
     FM171500 16010G18KT P6SM BKN250
     FM180000 12006KT P6SM SKC=

USA.gov is the U.S. government's official web portal to all federal, state and local government web resources and services.